sensor_id;sensor_type;location;lat;lon;timestamp;temperature;humidity
77613;DHT22;66777;52.282;5.960;2023-08-08T00:01:24;16.20;80.10
77613;DHT22;66777;52.282;5.960;2023-08-08T00:03:51;16.20;80.10
77613;DHT22;66777;52.282;5.960;2023-08-08T00:06:17;16.20;80.20
77613;DHT22;66777;52.282;5.960;2023-08-08T00:08:42;16.20;80.30
77613;DHT22;66777;52.282;5.960;2023-08-08T00:11:08;16.20;80.30
77613;DHT22;66777;52.282;5.960;2023-08-08T00:13:34;16.20;80.40
77613;DHT22;66777;52.282;5.960;2023-08-08T00:16:00;16.20;80.40
77613;DHT22;66777;52.282;5.960;2023-08-08T00:18:25;16.20;80.50
77613;DHT22;66777;52.282;5.960;2023-08-08T00:20:51;16.20;80.50
77613;DHT22;66777;52.282;5.960;2023-08-08T00:23:17;16.20;80.60
77613;DHT22;66777;52.282;5.960;2023-08-08T00:25:44;16.20;80.70
77613;DHT22;66777;52.282;5.960;2023-08-08T00:28:15;16.20;80.60
77613;DHT22;66777;52.282;5.960;2023-08-08T00:30:42;16.10;80.80
77613;DHT22;66777;52.282;5.960;2023-08-08T00:33:07;16.20;80.90
77613;DHT22;66777;52.282;5.960;2023-08-08T00:35:33;16.20;80.90
77613;DHT22;66777;52.282;5.960;2023-08-08T00:37:59;16.20;81.00
77613;DHT22;66777;52.282;5.960;2023-08-08T00:40:24;16.20;81.00
77613;DHT22;66777;52.282;5.960;2023-08-08T00:42:50;16.20;81.20
77613;DHT22;66777;52.282;5.960;2023-08-08T00:45:16;16.20;81.20
77613;DHT22;66777;52.282;5.960;2023-08-08T00:47:42;16.20;81.30
77613;DHT22;66777;52.282;5.960;2023-08-08T00:50:08;16.10;81.40
77613;DHT22;66777;52.282;5.960;2023-08-08T00:52:36;16.20;81.40
77613;DHT22;66777;52.282;5.960;2023-08-08T00:55:03;16.20;81.50
77613;DHT22;66777;52.282;5.960;2023-08-08T00:57:30;16.20;81.60
77613;DHT22;66777;52.282;5.960;2023-08-08T00:59:56;16.20;81.50
77613;DHT22;66777;52.282;5.960;2023-08-08T01:02:22;16.20;81.70
77613;DHT22;66777;52.282;5.960;2023-08-08T01:04:47;16.20;81.70
77613;DHT22;66777;52.282;5.960;2023-08-08T01:07:41;16.20;81.80
77613;DHT22;66777;52.282;5.960;2023-08-08T01:10:21;16.20;81.90
77613;DHT22;66777;52.282;5.960;2023-08-08T01:12:51;16.20;81.90
77613;DHT22;66777;52.282;5.960;2023-08-08T01:15:18;16.20;81.90
77613;DHT22;66777;52.282;5.960;2023-08-08T01:17:46;16.20;81.90
77613;DHT22;66777;52.282;5.960;2023-08-08T01:20:14;16.20;82.00
77613;DHT22;66777;52.282;5.960;2023-08-08T01:25:30;16.20;82.20
77613;DHT22;66777;52.282;5.960;2023-08-08T01:27:56;16.20;82.20
77613;DHT22;66777;52.282;5.960;2023-08-08T01:30:22;16.20;82.20
77613;DHT22;66777;52.282;5.960;2023-08-08T01:32:47;16.10;82.30
77613;DHT22;66777;52.282;5.960;2023-08-08T01:35:13;16.20;82.40
77613;DHT22;66777;52.282;5.960;2023-08-08T01:37:46;16.10;82.40
77613;DHT22;66777;52.282;5.960;2023-08-08T01:40:18;16.20;82.50
77613;DHT22;66777;52.282;5.960;2023-08-08T01:42:46;16.10;82.50
77613;DHT22;66777;52.282;5.960;2023-08-08T01:45:13;16.10;82.50
77613;DHT22;66777;52.282;5.960;2023-08-08T01:47:38;16.10;82.60
77613;DHT22;66777;52.282;5.960;2023-08-08T01:50:04;16.10;82.60
77613;DHT22;66777;52.282;5.960;2023-08-08T01:52:31;16.10;82.60
77613;DHT22;66777;52.282;5.960;2023-08-08T01:54:56;16.10;82.70
77613;DHT22;66777;52.282;5.960;2023-08-08T01:57:22;16.10;82.70
77613;DHT22;66777;52.282;5.960;2023-08-08T01:59:48;16.10;82.70
77613;DHT22;66777;52.282;5.960;2023-08-08T02:02:15;16.10;82.70
77613;DHT22;66777;52.282;5.960;2023-08-08T02:04:43;16.10;82.80
77613;DHT22;66777;52.282;5.960;2023-08-08T02:07:09;16.10;82.80
77613;DHT22;66777;52.282;5.960;2023-08-08T02:09:35;16.20;82.80
77613;DHT22;66777;52.282;5.960;2023-08-08T02:12:01;16.20;82.70
77613;DHT22;66777;52.282;5.960;2023-08-08T02:14:26;16.20;82.70
77613;DHT22;66777;52.282;5.960;2023-08-08T02:16:52;16.20;82.70
77613;DHT22;66777;52.282;5.960;2023-08-08T02:19:17;16.20;82.80
77613;DHT22;66777;52.282;5.960;2023-08-08T02:21:43;16.20;82.90
77613;DHT22;66777;52.282;5.960;2023-08-08T02:24:09;16.20;82.80
77613;DHT22;66777;52.282;5.960;2023-08-08T02:26:34;16.20;82.80
77613;DHT22;66777;52.282;5.960;2023-08-08T02:29:00;16.20;82.70
77613;DHT22;66777;52.282;5.960;2023-08-08T02:31:26;16.20;82.80
77613;DHT22;66777;52.282;5.960;2023-08-08T02:33:52;16.20;82.80
77613;DHT22;66777;52.282;5.960;2023-08-08T02:36:18;16.20;82.80
77613;DHT22;66777;52.282;5.960;2023-08-08T02:38:45;16.20;82.80
77613;DHT22;66777;52.282;5.960;2023-08-08T02:41:10;16.20;82.80
77613;DHT22;66777;52.282;5.960;2023-08-08T02:43:36;16.20;82.80
77613;DHT22;66777;52.282;5.960;2023-08-08T02:46:02;16.20;82.90
77613;DHT22;66777;52.282;5.960;2023-08-08T02:48:29;16.20;82.90
77613;DHT22;66777;52.282;5.960;2023-08-08T02:50:55;16.20;83.00
77613;DHT22;66777;52.282;5.960;2023-08-08T02:53:22;16.20;83.00
77613;DHT22;66777;52.282;5.960;2023-08-08T02:55:47;16.20;83.00
77613;DHT22;66777;52.282;5.960;2023-08-08T02:58:13;16.20;83.10
77613;DHT22;66777;52.282;5.960;2023-08-08T03:00:39;16.20;83.10
77613;DHT22;66777;52.282;5.960;2023-08-08T03:03:05;16.10;83.10
77613;DHT22;66777;52.282;5.960;2023-08-08T03:05:31;16.10;83.20
77613;DHT22;66777;52.282;5.960;2023-08-08T03:07:58;16.10;83.20
77613;DHT22;66777;52.282;5.960;2023-08-08T03:10:24;16.10;83.20
77613;DHT22;66777;52.282;5.960;2023-08-08T03:12:50;16.10;83.20
77613;DHT22;66777;52.282;5.960;2023-08-08T03:15:16;16.10;83.20
77613;DHT22;66777;52.282;5.960;2023-08-08T03:17:43;16.10;83.20
77613;DHT22;66777;52.282;5.960;2023-08-08T03:20:09;16.10;83.20
77613;DHT22;66777;52.282;5.960;2023-08-08T03:22:37;16.10;83.20
77613;DHT22;66777;52.282;5.960;2023-08-08T03:25:03;16.10;83.20
77613;DHT22;66777;52.282;5.960;2023-08-08T03:27:30;16.10;83.20
77613;DHT22;66777;52.282;5.960;2023-08-08T03:29:56;16.10;83.20
77613;DHT22;66777;52.282;5.960;2023-08-08T03:32:22;16.10;83.20
77613;DHT22;66777;52.282;5.960;2023-08-08T03:34:48;16.10;83.20
77613;DHT22;66777;52.282;5.960;2023-08-08T03:37:14;16.10;83.20
77613;DHT22;66777;52.282;5.960;2023-08-08T03:39:40;16.00;83.30
77613;DHT22;66777;52.282;5.960;2023-08-08T03:42:05;16.00;83.40
77613;DHT22;66777;52.282;5.960;2023-08-08T03:44:31;16.00;83.40
77613;DHT22;66777;52.282;5.960;2023-08-08T03:46:57;16.00;83.50
77613;DHT22;66777;52.282;5.960;2023-08-08T03:49:22;16.00;83.40
77613;DHT22;66777;52.282;5.960;2023-08-08T03:51:48;16.00;83.40
77613;DHT22;66777;52.282;5.960;2023-08-08T03:54:14;16.00;83.40
77613;DHT22;66777;52.282;5.960;2023-08-08T03:56:41;16.00;83.40
77613;DHT22;66777;52.282;5.960;2023-08-08T03:59:06;16.00;83.40
77613;DHT22;66777;52.282;5.960;2023-08-08T04:01:32;16.00;83.40
77613;DHT22;66777;52.282;5.960;2023-08-08T04:03:58;16.00;83.40
77613;DHT22;66777;52.282;5.960;2023-08-08T04:06:24;16.00;83.30
77613;DHT22;66777;52.282;5.960;2023-08-08T04:08:50;16.00;83.30
77613;DHT22;66777;52.282;5.960;2023-08-08T04:11:16;16.00;83.30
77613;DHT22;66777;52.282;5.960;2023-08-08T04:13:42;16.00;83.20
77613;DHT22;66777;52.282;5.960;2023-08-08T04:16:08;15.90;83.30
77613;DHT22;66777;52.282;5.960;2023-08-08T04:18:35;15.90;83.30
77613;DHT22;66777;52.282;5.960;2023-08-08T04:21:00;15.90;83.20
77613;DHT22;66777;52.282;5.960;2023-08-08T04:23:27;15.90;83.30
77613;DHT22;66777;52.282;5.960;2023-08-08T04:25:53;15.90;83.20
77613;DHT22;66777;52.282;5.960;2023-08-08T04:28:19;15.90;83.20
77613;DHT22;66777;52.282;5.960;2023-08-08T04:30:45;15.90;83.30
77613;DHT22;66777;52.282;5.960;2023-08-08T04:33:11;16.00;83.20
77613;DHT22;66777;52.282;5.960;2023-08-08T04:35:36;15.90;83.10
77613;DHT22;66777;52.282;5.960;2023-08-08T04:38:02;15.90;83.20
77613;DHT22;66777;52.282;5.960;2023-08-08T04:40:28;15.90;83.20
77613;DHT22;66777;52.282;5.960;2023-08-08T04:42:54;15.90;83.20
77613;DHT22;66777;52.282;5.960;2023-08-08T04:45:19;15.90;83.20
77613;DHT22;66777;52.282;5.960;2023-08-08T04:47:47;15.90;83.00
77613;DHT22;66777;52.282;5.960;2023-08-08T04:50:12;15.90;83.10
77613;DHT22;66777;52.282;5.960;2023-08-08T04:52:38;15.90;83.00
77613;DHT22;66777;52.282;5.960;2023-08-08T04:55:05;15.90;83.00
77613;DHT22;66777;52.282;5.960;2023-08-08T04:57:31;15.80;83.20
77613;DHT22;66777;52.282;5.960;2023-08-08T04:59:58;15.90;83.10
77613;DHT22;66777;52.282;5.960;2023-08-08T05:02:26;15.90;83.00
77613;DHT22;66777;52.282;5.960;2023-08-08T05:04:52;15.90;83.00
77613;DHT22;66777;52.282;5.960;2023-08-08T05:07:18;15.90;82.90
77613;DHT22;66777;52.282;5.960;2023-08-08T05:09:44;15.90;82.80
77613;DHT22;66777;52.282;5.960;2023-08-08T05:12:09;15.90;82.90
77613;DHT22;66777;52.282;5.960;2023-08-08T05:14:36;15.90;82.70
77613;DHT22;66777;52.282;5.960;2023-08-08T05:17:02;15.90;82.80
77613;DHT22;66777;52.282;5.960;2023-08-08T05:19:28;16.00;82.70
77613;DHT22;66777;52.282;5.960;2023-08-08T05:21:54;16.00;82.70
77613;DHT22;66777;52.282;5.960;2023-08-08T05:24:20;16.00;82.60
77613;DHT22;66777;52.282;5.960;2023-08-08T05:26:46;16.00;82.60
77613;DHT22;66777;52.282;5.960;2023-08-08T05:29:11;16.00;82.60
77613;DHT22;66777;52.282;5.960;2023-08-08T05:31:37;16.00;82.60
77613;DHT22;66777;52.282;5.960;2023-08-08T05:34:03;16.00;82.50
77613;DHT22;66777;52.282;5.960;2023-08-08T05:36:28;16.00;82.50
77613;DHT22;66777;52.282;5.960;2023-08-08T05:38:54;16.00;82.50
77613;DHT22;66777;52.282;5.960;2023-08-08T05:41:20;16.00;82.40
77613;DHT22;66777;52.282;5.960;2023-08-08T05:43:46;16.00;82.30
77613;DHT22;66777;52.282;5.960;2023-08-08T05:46:11;16.00;82.30
77613;DHT22;66777;52.282;5.960;2023-08-08T05:48:37;16.00;82.40
77613;DHT22;66777;52.282;5.960;2023-08-08T05:51:02;16.00;82.30
77613;DHT22;66777;52.282;5.960;2023-08-08T05:53:31;16.00;82.30
77613;DHT22;66777;52.282;5.960;2023-08-08T05:55:57;16.00;82.30
77613;DHT22;66777;52.282;5.960;2023-08-08T05:58:23;16.00;82.30
77613;DHT22;66777;52.282;5.960;2023-08-08T06:00:50;16.00;82.20
77613;DHT22;66777;52.282;5.960;2023-08-08T06:03:15;16.00;82.20
77613;DHT22;66777;52.282;5.960;2023-08-08T06:05:41;16.10;82.20
77613;DHT22;66777;52.282;5.960;2023-08-08T06:08:07;16.10;82.10
77613;DHT22;66777;52.282;5.960;2023-08-08T06:10:37;16.10;82.00
77613;DHT22;66777;52.282;5.960;2023-08-08T06:13:03;16.10;82.00
77613;DHT22;66777;52.282;5.960;2023-08-08T06:15:29;16.10;81.80
77613;DHT22;66777;52.282;5.960;2023-08-08T06:17:54;16.20;81.70
77613;DHT22;66777;52.282;5.960;2023-08-08T06:20:20;16.20;81.70
77613;DHT22;66777;52.282;5.960;2023-08-08T06:22:47;16.30;81.60
77613;DHT22;66777;52.282;5.960;2023-08-08T06:25:12;16.30;81.50
77613;DHT22;66777;52.282;5.960;2023-08-08T06:27:38;16.40;81.40
77613;DHT22;66777;52.282;5.960;2023-08-08T06:30:05;16.40;81.30
77613;DHT22;66777;52.282;5.960;2023-08-08T06:32:31;16.40;81.10
77613;DHT22;66777;52.282;5.960;2023-08-08T06:34:56;16.50;81.00
77613;DHT22;66777;52.282;5.960;2023-08-08T06:37:22;16.50;80.60
77613;DHT22;66777;52.282;5.960;2023-08-08T06:39:47;16.60;80.50
77613;DHT22;66777;52.282;5.960;2023-08-08T06:42:13;16.60;80.30
77613;DHT22;66777;52.282;5.960;2023-08-08T06:44:44;16.70;80.20
77613;DHT22;66777;52.282;5.960;2023-08-08T06:47:11;16.70;80.00
77613;DHT22;66777;52.282;5.960;2023-08-08T06:49:37;16.80;79.80
77613;DHT22;66777;52.282;5.960;2023-08-08T06:52:04;16.80;79.60
77613;DHT22;66777;52.282;5.960;2023-08-08T06:54:31;16.90;79.30
77613;DHT22;66777;52.282;5.960;2023-08-08T06:56:56;16.90;79.10
77613;DHT22;66777;52.282;5.960;2023-08-08T06:59:23;16.90;79.10
77613;DHT22;66777;52.282;5.960;2023-08-08T07:01:49;16.90;79.00
77613;DHT22;66777;52.282;5.960;2023-08-08T07:04:16;17.00;78.50
77613;DHT22;66777;52.282;5.960;2023-08-08T07:06:43;17.00;78.40
77613;DHT22;66777;52.282;5.960;2023-08-08T07:09:11;17.00;78.20
77613;DHT22;66777;52.282;5.960;2023-08-08T07:11:37;17.00;77.90
77613;DHT22;66777;52.282;5.960;2023-08-08T07:14:03;17.00;77.70
77613;DHT22;66777;52.282;5.960;2023-08-08T07:16:29;17.00;77.30
77613;DHT22;66777;52.282;5.960;2023-08-08T07:18:54;17.00;77.20
77613;DHT22;66777;52.282;5.960;2023-08-08T07:21:21;17.00;76.70
77613;DHT22;66777;52.282;5.960;2023-08-08T07:23:47;17.00;76.70
77613;DHT22;66777;52.282;5.960;2023-08-08T07:26:14;17.00;76.30
77613;DHT22;66777;52.282;5.960;2023-08-08T07:28:40;17.00;75.80
77613;DHT22;66777;52.282;5.960;2023-08-08T07:31:05;17.00;75.80
77613;DHT22;66777;52.282;5.960;2023-08-08T07:33:31;17.00;75.60
77613;DHT22;66777;52.282;5.960;2023-08-08T07:35:57;17.00;75.60
77613;DHT22;66777;52.282;5.960;2023-08-08T07:38:22;17.00;75.70
77613;DHT22;66777;52.282;5.960;2023-08-08T07:40:48;17.10;75.70
77613;DHT22;66777;52.282;5.960;2023-08-08T07:43:14;17.20;75.50
77613;DHT22;66777;52.282;5.960;2023-08-08T07:45:41;17.30;75.30
77613;DHT22;66777;52.282;5.960;2023-08-08T07:48:07;17.50;75.00
77613;DHT22;66777;52.282;5.960;2023-08-08T07:50:32;17.50;74.70
77613;DHT22;66777;52.282;5.960;2023-08-08T07:52:59;17.60;74.20
77613;DHT22;66777;52.282;5.960;2023-08-08T07:55:25;17.50;74.10
77613;DHT22;66777;52.282;5.960;2023-08-08T07:57:51;17.50;74.20
77613;DHT22;66777;52.282;5.960;2023-08-08T08:00:17;17.60;74.00
77613;DHT22;66777;52.282;5.960;2023-08-08T08:02:45;17.60;74.00
77613;DHT22;66777;52.282;5.960;2023-08-08T08:05:12;17.80;73.50
77613;DHT22;66777;52.282;5.960;2023-08-08T08:07:39;17.80;73.10
77613;DHT22;66777;52.282;5.960;2023-08-08T08:10:09;17.80;72.90
77613;DHT22;66777;52.282;5.960;2023-08-08T08:12:36;18.00;72.80
77613;DHT22;66777;52.282;5.960;2023-08-08T08:15:02;18.00;72.60
77613;DHT22;66777;52.282;5.960;2023-08-08T08:17:31;18.00;72.60
77613;DHT22;66777;52.282;5.960;2023-08-08T08:19:58;18.00;72.00
77613;DHT22;66777;52.282;5.960;2023-08-08T08:22:24;18.00;71.90
77613;DHT22;66777;52.282;5.960;2023-08-08T08:24:50;18.00;71.70
77613;DHT22;66777;52.282;5.960;2023-08-08T08:27:16;18.00;71.80
77613;DHT22;66777;52.282;5.960;2023-08-08T08:29:43;18.00;71.80
77613;DHT22;66777;52.282;5.960;2023-08-08T08:32:08;18.00;71.10
77613;DHT22;66777;52.282;5.960;2023-08-08T08:34:34;18.00;71.00
77613;DHT22;66777;52.282;5.960;2023-08-08T08:37:00;18.00;70.80
77613;DHT22;66777;52.282;5.960;2023-08-08T08:39:25;18.00;70.70
77613;DHT22;66777;52.282;5.960;2023-08-08T08:41:59;18.10;70.40
77613;DHT22;66777;52.282;5.960;2023-08-08T08:44:27;18.10;70.30
77613;DHT22;66777;52.282;5.960;2023-08-08T08:47:02;18.10;70.30
77613;DHT22;66777;52.282;5.960;2023-08-08T08:49:31;18.00;70.40
77613;DHT22;66777;52.282;5.960;2023-08-08T08:52:00;18.10;70.60
77613;DHT22;66777;52.282;5.960;2023-08-08T08:54:28;18.10;70.80
77613;DHT22;66777;52.282;5.960;2023-08-08T08:56:55;18.20;70.90
77613;DHT22;66777;52.282;5.960;2023-08-08T08:59:21;18.30;70.50
77613;DHT22;66777;52.282;5.960;2023-08-08T09:01:47;18.30;70.50
77613;DHT22;66777;52.282;5.960;2023-08-08T09:04:15;18.30;70.40
77613;DHT22;66777;52.282;5.960;2023-08-08T09:06:42;18.20;70.20
77613;DHT22;66777;52.282;5.960;2023-08-08T09:09:09;18.20;70.00
77613;DHT22;66777;52.282;5.960;2023-08-08T09:11:34;18.10;69.50
77613;DHT22;66777;52.282;5.960;2023-08-08T09:14:00;18.00;69.20
77613;DHT22;66777;52.282;5.960;2023-08-08T09:16:27;18.00;69.10
77613;DHT22;66777;52.282;5.960;2023-08-08T09:18:53;18.00;69.40
77613;DHT22;66777;52.282;5.960;2023-08-08T09:21:19;18.00;69.60
77613;DHT22;66777;52.282;5.960;2023-08-08T09:23:44;18.00;69.70
77613;DHT22;66777;52.282;5.960;2023-08-08T09:26:12;18.00;69.30
77613;DHT22;66777;52.282;5.960;2023-08-08T09:28:38;17.90;69.40
77613;DHT22;66777;52.282;5.960;2023-08-08T09:31:04;18.00;69.60
77613;DHT22;66777;52.282;5.960;2023-08-08T09:33:29;18.00;69.10
77613;DHT22;66777;52.282;5.960;2023-08-08T09:35:55;18.10;68.60
77613;DHT22;66777;52.282;5.960;2023-08-08T09:38:21;18.20;68.40
77613;DHT22;66777;52.282;5.960;2023-08-08T09:40:47;18.20;68.00
77613;DHT22;66777;52.282;5.960;2023-08-08T09:43:13;18.10;67.80
77613;DHT22;66777;52.282;5.960;2023-08-08T09:45:40;18.20;66.90
77613;DHT22;66777;52.282;5.960;2023-08-08T09:48:10;18.10;66.80
77613;DHT22;66777;52.282;5.960;2023-08-08T09:50:35;18.20;66.60
77613;DHT22;66777;52.282;5.960;2023-08-08T09:53:04;18.30;66.60
77613;DHT22;66777;52.282;5.960;2023-08-08T09:55:32;18.30;66.50
77613;DHT22;66777;52.282;5.960;2023-08-08T09:57:58;18.30;66.60
77613;DHT22;66777;52.282;5.960;2023-08-08T10:00:24;18.30;66.80
77613;DHT22;66777;52.282;5.960;2023-08-08T10:02:53;18.30;66.90
77613;DHT22;66777;52.282;5.960;2023-08-08T10:05:19;18.30;67.00
77613;DHT22;66777;52.282;5.960;2023-08-08T10:07:45;18.30;67.20
77613;DHT22;66777;52.282;5.960;2023-08-08T10:10:11;18.40;67.20
77613;DHT22;66777;52.282;5.960;2023-08-08T10:12:40;18.40;66.80
77613;DHT22;66777;52.282;5.960;2023-08-08T10:15:07;18.40;66.60
77613;DHT22;66777;52.282;5.960;2023-08-08T10:17:37;18.30;66.90
77613;DHT22;66777;52.282;5.960;2023-08-08T10:20:05;18.30;67.10
77613;DHT22;66777;52.282;5.960;2023-08-08T10:22:37;18.30;67.20
77613;DHT22;66777;52.282;5.960;2023-08-08T10:25:04;18.30;67.30
77613;DHT22;66777;52.282;5.960;2023-08-08T10:27:34;18.30;67.30
77613;DHT22;66777;52.282;5.960;2023-08-08T10:30:07;18.50;67.10
77613;DHT22;66777;52.282;5.960;2023-08-08T10:32:45;18.60;66.40
77613;DHT22;66777;52.282;5.960;2023-08-08T10:35:13;18.60;66.20
77613;DHT22;66777;52.282;5.960;2023-08-08T10:37:40;18.60;66.00
77613;DHT22;66777;52.282;5.960;2023-08-08T10:40:07;18.60;65.70
77613;DHT22;66777;52.282;5.960;2023-08-08T10:42:42;18.60;65.40
77613;DHT22;66777;52.282;5.960;2023-08-08T10:45:11;18.60;65.20
77613;DHT22;66777;52.282;5.960;2023-08-08T10:47:41;18.60;65.30
77613;DHT22;66777;52.282;5.960;2023-08-08T10:50:15;18.60;65.50
77613;DHT22;66777;52.282;5.960;2023-08-08T10:58:05;19.00;65.20
77613;DHT22;66777;52.282;5.960;2023-08-08T11:00:32;19.20;65.20
77613;DHT22;66777;52.282;5.960;2023-08-08T11:02:59;19.40;65.10
77613;DHT22;66777;52.282;5.960;2023-08-08T11:05:28;19.50;65.00
77613;DHT22;66777;52.282;5.960;2023-08-08T11:07:55;19.70;64.80
77613;DHT22;66777;52.282;5.960;2023-08-08T11:10:21;19.70;64.20
77613;DHT22;66777;52.282;5.960;2023-08-08T11:13:14;19.70;63.80
77613;DHT22;66777;52.282;5.960;2023-08-08T11:15:40;19.70;63.00
77613;DHT22;66777;52.282;5.960;2023-08-08T11:18:07;19.70;61.90
77613;DHT22;66777;52.282;5.960;2023-08-08T11:20:35;19.90;61.20
77613;DHT22;66777;52.282;5.960;2023-08-08T11:23:02;20.00;61.00
77613;DHT22;66777;52.282;5.960;2023-08-08T11:25:30;20.00;61.20
77613;DHT22;66777;52.282;5.960;2023-08-08T11:27:56;20.00;61.70
77613;DHT22;66777;52.282;5.960;2023-08-08T11:30:23;20.10;60.90
77613;DHT22;66777;52.282;5.960;2023-08-08T11:32:50;20.10;60.90
77613;DHT22;66777;52.282;5.960;2023-08-08T11:35:17;20.10;60.90
77613;DHT22;66777;52.282;5.960;2023-08-08T11:37:45;20.10;60.80
77613;DHT22;66777;52.282;5.960;2023-08-08T11:40:11;20.10;60.50
77613;DHT22;66777;52.282;5.960;2023-08-08T11:42:38;20.10;60.70
77613;DHT22;66777;52.282;5.960;2023-08-08T11:45:05;20.10;60.40
77613;DHT22;66777;52.282;5.960;2023-08-08T11:47:32;20.00;60.60
77613;DHT22;66777;52.282;5.960;2023-08-08T11:50:02;20.00;61.10
77613;DHT22;66777;52.282;5.960;2023-08-08T11:52:29;20.00;61.30
77613;DHT22;66777;52.282;5.960;2023-08-08T11:54:58;20.00;61.30
77613;DHT22;66777;52.282;5.960;2023-08-08T11:57:24;20.10;61.20
77613;DHT22;66777;52.282;5.960;2023-08-08T11:59:52;20.00;61.10
77613;DHT22;66777;52.282;5.960;2023-08-08T12:02:18;20.00;60.90
77613;DHT22;66777;52.282;5.960;2023-08-08T12:04:47;20.00;61.00
77613;DHT22;66777;52.282;5.960;2023-08-08T12:07:13;19.90;61.20
77613;DHT22;66777;52.282;5.960;2023-08-08T12:09:39;19.80;61.40
77613;DHT22;66777;52.282;5.960;2023-08-08T12:12:05;19.80;61.60
77613;DHT22;66777;52.282;5.960;2023-08-08T12:14:39;19.70;61.80
77613;DHT22;66777;52.282;5.960;2023-08-08T12:17:05;19.70;61.90
77613;DHT22;66777;52.282;5.960;2023-08-08T12:19:31;19.70;61.80
77613;DHT22;66777;52.282;5.960;2023-08-08T12:21:56;19.80;61.90
77613;DHT22;66777;52.282;5.960;2023-08-08T12:24:22;19.80;62.10
77613;DHT22;66777;52.282;5.960;2023-08-08T12:26:48;19.80;62.40
77613;DHT22;66777;52.282;5.960;2023-08-08T12:29:13;19.80;62.50
77613;DHT22;66777;52.282;5.960;2023-08-08T12:31:40;19.80;62.60
77613;DHT22;66777;52.282;5.960;2023-08-08T12:34:05;19.70;62.60
77613;DHT22;66777;52.282;5.960;2023-08-08T12:36:31;19.80;62.60
77613;DHT22;66777;52.282;5.960;2023-08-08T12:38:57;19.90;62.60
77613;DHT22;66777;52.282;5.960;2023-08-08T12:41:24;20.00;62.90
77613;DHT22;66777;52.282;5.960;2023-08-08T12:43:50;19.90;62.10
77613;DHT22;66777;52.282;5.960;2023-08-08T12:46:16;19.90;62.00
77613;DHT22;66777;52.282;5.960;2023-08-08T12:48:42;19.90;61.60
77613;DHT22;66777;52.282;5.960;2023-08-08T12:51:11;19.80;61.30
77613;DHT22;66777;52.282;5.960;2023-08-08T12:53:36;19.70;61.30
77613;DHT22;66777;52.282;5.960;2023-08-08T12:56:02;19.70;61.60
77613;DHT22;66777;52.282;5.960;2023-08-08T12:58:28;19.90;61.80
77613;DHT22;66777;52.282;5.960;2023-08-08T13:00:54;20.10;61.90
77613;DHT22;66777;52.282;5.960;2023-08-08T13:03:19;20.30;61.50
77613;DHT22;66777;52.282;5.960;2023-08-08T13:05:46;20.50;61.10
77613;DHT22;66777;52.282;5.960;2023-08-08T13:08:13;20.50;61.00
77613;DHT22;66777;52.282;5.960;2023-08-08T13:10:40;20.50;61.00
77613;DHT22;66777;52.282;5.960;2023-08-08T13:13:06;20.70;61.20
77613;DHT22;66777;52.282;5.960;2023-08-08T13:15:32;20.90;61.20
77613;DHT22;66777;52.282;5.960;2023-08-08T13:17:58;20.80;60.80
77613;DHT22;66777;52.282;5.960;2023-08-08T13:20:25;20.70;60.70
77613;DHT22;66777;52.282;5.960;2023-08-08T13:22:51;20.50;60.70
77613;DHT22;66777;52.282;5.960;2023-08-08T13:25:17;20.50;60.30
77613;DHT22;66777;52.282;5.960;2023-08-08T13:27:45;20.30;60.40
77613;DHT22;66777;52.282;5.960;2023-08-08T13:30:11;20.30;60.70
77613;DHT22;66777;52.282;5.960;2023-08-08T13:32:37;20.40;60.50
77613;DHT22;66777;52.282;5.960;2023-08-08T13:35:04;20.60;60.30
77613;DHT22;66777;52.282;5.960;2023-08-08T13:37:30;20.70;60.00
77613;DHT22;66777;52.282;5.960;2023-08-08T13:39:56;20.80;59.30
77613;DHT22;66777;52.282;5.960;2023-08-08T13:42:21;20.80;59.20
77613;DHT22;66777;52.282;5.960;2023-08-08T13:44:47;20.90;59.30
77613;DHT22;66777;52.282;5.960;2023-08-08T13:47:13;21.10;58.80
77613;DHT22;66777;52.282;5.960;2023-08-08T13:49:39;21.20;58.70
77613;DHT22;66777;52.282;5.960;2023-08-08T13:52:04;21.10;58.40
77613;DHT22;66777;52.282;5.960;2023-08-08T13:54:30;21.10;58.80
77613;DHT22;66777;52.282;5.960;2023-08-08T13:56:56;21.30;58.90
77613;DHT22;66777;52.282;5.960;2023-08-08T13:59:21;21.40;58.60
77613;DHT22;66777;52.282;5.960;2023-08-08T14:01:48;21.20;58.60
77613;DHT22;66777;52.282;5.960;2023-08-08T14:04:14;21.00;58.70
77613;DHT22;66777;52.282;5.960;2023-08-08T14:06:39;20.80;59.30
77613;DHT22;66777;52.282;5.960;2023-08-08T14:09:05;20.70;60.00
77613;DHT22;66777;52.282;5.960;2023-08-08T14:11:31;20.60;60.10
77613;DHT22;66777;52.282;5.960;2023-08-08T14:13:56;20.50;59.70
77613;DHT22;66777;52.282;5.960;2023-08-08T14:16:22;20.70;59.60
77613;DHT22;66777;52.282;5.960;2023-08-08T14:18:48;20.80;59.40
77613;DHT22;66777;52.282;5.960;2023-08-08T14:21:15;20.80;59.30
77613;DHT22;66777;52.282;5.960;2023-08-08T14:23:41;20.90;59.30
77613;DHT22;66777;52.282;5.960;2023-08-08T14:26:07;20.80;59.10
77613;DHT22;66777;52.282;5.960;2023-08-08T14:28:33;20.70;58.70
77613;DHT22;66777;52.282;5.960;2023-08-08T14:30:58;20.50;58.80
77613;DHT22;66777;52.282;5.960;2023-08-08T14:33:24;20.40;59.00
77613;DHT22;66777;52.282;5.960;2023-08-08T14:35:50;20.30;59.30
77613;DHT22;66777;52.282;5.960;2023-08-08T14:38:15;20.00;59.70
77613;DHT22;66777;52.282;5.960;2023-08-08T14:40:41;20.00;60.20
77613;DHT22;66777;52.282;5.960;2023-08-08T14:43:07;19.80;61.20
77613;DHT22;66777;52.282;5.960;2023-08-08T14:45:37;19.90;62.40
77613;DHT22;66777;52.282;5.960;2023-08-08T14:48:04;20.70;62.00
77613;DHT22;66777;52.282;5.960;2023-08-08T14:50:30;20.50;62.80
77613;DHT22;66777;52.282;5.960;2023-08-08T14:52:56;20.10;63.60
77613;DHT22;66777;52.282;5.960;2023-08-08T14:55:21;19.90;64.30
77613;DHT22;66777;52.282;5.960;2023-08-08T14:57:47;19.70;64.40
77613;DHT22;66777;52.282;5.960;2023-08-08T15:00:13;19.50;64.10
77613;DHT22;66777;52.282;5.960;2023-08-08T15:02:38;19.50;64.30
77613;DHT22;66777;52.282;5.960;2023-08-08T15:05:04;19.50;64.10
77613;DHT22;66777;52.282;5.960;2023-08-08T15:07:30;20.30;63.00
77613;DHT22;66777;52.282;5.960;2023-08-08T15:09:56;20.20;62.80
77613;DHT22;66777;52.282;5.960;2023-08-08T15:12:21;20.00;62.80
77613;DHT22;66777;52.282;5.960;2023-08-08T15:14:47;20.00;63.00
77613;DHT22;66777;52.282;5.960;2023-08-08T15:17:14;20.20;62.70
77613;DHT22;66777;52.282;5.960;2023-08-08T15:19:40;20.80;62.10
77613;DHT22;66777;52.282;5.960;2023-08-08T15:22:06;21.00;60.60
77613;DHT22;66777;52.282;5.960;2023-08-08T15:24:32;20.90;60.30
77613;DHT22;66777;52.282;5.960;2023-08-08T15:26:59;20.70;60.50
77613;DHT22;66777;52.282;5.960;2023-08-08T15:29:25;20.50;60.50
77613;DHT22;66777;52.282;5.960;2023-08-08T15:31:50;20.30;60.80
77613;DHT22;66777;52.282;5.960;2023-08-08T15:34:16;20.10;61.10